Time;durP1;ratioP1;P1;durP2;ratioP2;P2;SDS_P1;SDS_P2;PMS_P1;PMS_P2;Temp;Humidity;BMP_temperature;BMP_pressure;BME280_temperature;BME280_humidity;BME280_pressure;Samples;Min_cycle;Max_cycle;Signal;HPM_P1;HPM_P2
2022/08/12 00:45:10;;;;;;;5.57;3.58;;;24.10;79.60;;;;;;5075758;28;20037;-64
2022/08/12 00:47:37;;;;;;;5.93;3.20;;;24.00;79.80;;;;;;5056557;28;20044;-64
2022/08/12 00:50:11;;;;;;;6.50;3.45;;;24.00;80.00;;;;;;5056770;28;20033;-64
2022/08/12 00:52:37;;;;;;;7.82;3.13;;;24.00;80.10;;;;;;5056863;28;20024;-64
2022/08/12 00:55:04;;;;;;;5.45;3.53;;;24.00;80.30;;;;;;5056801;28;20033;-64
2022/08/12 00:57:35;;;;;;;4.50;2.67;;;24.00;80.50;;;;;;5063851;28;20049;-64
2022/08/12 01:00:14;;;;;;;5.78;2.92;;;23.90;80.70;;;;;;5074106;28;20122;-64
2022/08/12 01:02:44;;;;;;;9.27;3.50;;;23.90;80.80;;;;;;5057087;28;20033;-64
2022/08/12 01:13:31;;;;;;;5.35;3.30;;;23.80;81.50;;;;;;5069784;28;20037;-64
2022/08/12 01:16:00;;;;;;;7.57;3.25;;;23.80;81.60;;;;;;5067607;28;20118;-64
2022/08/12 01:18:32;;;;;;;8.27;3.58;;;23.70;81.70;;;;;;5075224;28;20032;-64
2022/08/12 01:21:23;;;;;;;11.60;3.50;;;23.70;81.80;;;;;;5074747;28;20031;-64
2022/08/12 01:24:09;;;;;;;9.07;3.15;;;23.70;81.80;;;;;;5064873;28;20033;-64
2022/08/12 01:26:38;;;;;;;7.53;3.60;;;23.70;81.90;;;;;;5063929;28;20039;-64
2022/08/12 01:29:06;;;;;;;14.23;3.28;;;23.70;82.00;;;;;;5073804;28;20032;-64
2022/08/12 01:31:35;;;;;;;4.90;3.42;;;23.60;82.10;;;;;;5074747;28;20066;-64
2022/08/12 01:34:05;;;;;;;5.60;3.30;;;23.70;82.30;;;;;;5074351;28;20031;-63
2022/08/12 01:36:58;;;;;;;7.95;4.32;;;23.60;82.40;;;;;;5073974;28;20388;-64
2022/08/12 01:39:33;;;;;;;6.43;3.67;;;23.60;82.30;;;;;;5055934;28;20454;-64
2022/08/12 01:42:06;;;;;;;7.20;3.90;;;23.60;82.50;;;;;;5067910;28;20041;-64
2022/08/12 01:44:32;;;;;;;7.03;3.42;;;23.50;82.70;;;;;;5061660;28;20029;-64
2022/08/12 01:47:23;;;;;;;7.80;3.10;;;23.50;82.90;;;;;;5060652;28;20041;-64
2022/08/12 01:50:05;;;;;;;8.80;3.50;;;23.50;83.20;;;;;;5074159;28;20157;-64
2022/08/12 01:52:42;;;;;;;9.90;4.10;;;23.50;83.40;;;;;;5074073;28;20395;-64
2022/08/12 01:55:10;;;;;;;6.75;3.60;;;23.40;83.70;;;;;;5073818;28;20032;-64
2022/08/12 01:57:43;;;;;;;7.03;3.15;;;23.40;83.90;;;;;;5073333;28;20091;-64
2022/08/12 02:00:15;;;;;;;9.07;3.55;;;23.40;84.00;;;;;;5073510;28;20120;-64
2022/08/12 02:03:02;;;;;;;14.07;4.15;;;23.30;84.10;;;;;;5073573;28;20037;-64
2022/08/12 02:11:53;;;;;;;5.97;3.83;;;23.30;84.20;;;;;;5060175;28;20028;-63
2022/08/12 02:14:48;;;;;;;5.97;3.78;;;23.30;84.40;;;;;;5062013;28;20036;-63
2022/08/12 02:17:44;;;;;;;13.32;4.10;;;23.30;84.40;;;;;;5055130;28;20051;-64
2022/08/12 02:20:30;;;;;;;5.63;3.63;;;23.20;84.50;;;;;;5062165;28;20036;-64
2022/08/12 02:22:58;;;;;;;8.68;3.70;;;23.20;84.80;;;;;;5061381;28;20032;-64
2022/08/12 02:25:35;;;;;;;10.27;3.92;;;23.20;84.80;;;;;;5063031;28;20151;-64
2022/08/12 02:28:01;;;;;;;9.55;3.92;;;23.20;84.80;;;;;;5059995;28;20107;-64
2022/08/12 02:30:30;;;;;;;6.03;3.90;;;23.20;84.80;;;;;;5071880;28;20025;-64
2022/08/12 02:32:58;;;;;;;7.25;3.97;;;23.10;84.70;;;;;;5059563;28;20392;-64
2022/08/12 02:35:27;;;;;;;11.52;4.32;;;23.10;84.60;;;;;;5073639;28;20435;-64
2022/08/12 02:37:55;;;;;;;10.07;4.25;;;23.10;84.60;;;;;;5073122;28;20110;-63
2022/08/12 02:40:23;;;;;;;8.05;4.25;;;23.10;84.50;;;;;;5073094;28;20173;-63
2022/08/12 02:42:57;;;;;;;10.52;3.85;;;23.10;84.50;;;;;;5054836;28;20037;-63
2022/08/12 02:45:37;;;;;;;6.82;4.15;;;23.10;84.40;;;;;;5055606;28;20028;-63
2022/08/12 02:48:06;;;;;;;8.45;3.80;;;23.10;84.30;;;;;;5066229;28;20058;-64
2022/08/12 02:50:39;;;;;;;5.45;3.60;;;23.10;84.30;;;;;;5073324;28;20032;-63
2022/08/12 02:53:06;;;;;;;10.07;3.78;;;23.00;84.10;;;;;;5070009;28;20028;-63
2022/08/12 02:55:35;;;;;;;9.63;4.13;;;23.10;84.10;;;;;;5071421;28;20039;-63
2022/08/12 02:58:06;;;;;;;8.65;4.13;;;23.00;84.10;;;;;;5068912;28;20403;-63
2022/08/12 03:00:33;;;;;;;8.30;4.10;;;23.00;84.10;;;;;;5063504;28;20036;-63
2022/08/12 03:03:07;;;;;;;10.80;3.90;;;23.00;84.20;;;;;;5067363;28;20028;-63
2022/08/12 03:05:36;;;;;;;7.53;3.60;;;23.00;84.20;;;;;;5068963;28;20040;-63
2022/08/12 03:08:08;;;;;;;10.68;4.00;;;23.00;84.20;;;;;;5069015;28;20033;-63
2022/08/12 03:10:38;;;;;;;11.02;4.18;;;22.90;84.10;;;;;;5068818;28;20036;-63
2022/08/12 03:13:09;;;;;;;7.55;4.00;;;22.90;84.10;;;;;;5069413;28;20052;-63
2022/08/12 03:15:36;;;;;;;6.97;4.18;;;22.90;84.00;;;;;;5068692;28;20040;-63
2022/08/12 03:18:15;;;;;;;7.78;3.83;;;22.90;83.90;;;;;;5071294;28;20064;-63
2022/08/12 03:20:41;;;;;;;11.77;3.88;;;22.80;83.90;;;;;;5071097;28;20033;-63
2022/08/12 03:23:12;;;;;;;9.98;3.95;;;22.80;83.90;;;;;;5062192;28;20040;-63
2022/08/12 03:25:42;;;;;;;12.05;4.18;;;22.80;84.10;;;;;;5072204;28;20025;-63
2022/08/12 03:28:10;;;;;;;9.38;4.80;;;22.80;84.00;;;;;;5063985;28;20201;-63
2022/08/12 03:30:37;;;;;;;12.38;4.13;;;22.70;84.00;;;;;;5072625;28;20075;-63
2022/08/12 03:33:04;;;;;;;9.18;4.30;;;22.80;84.20;;;;;;5068222;28;20387;-64
2022/08/12 03:35:33;;;;;;;9.05;4.03;;;22.70;84.10;;;;;;5071278;28;20032;-64
2022/08/12 03:38:07;;;;;;;9.40;4.07;;;22.60;84.10;;;;;;5062199;28;20040;-64
2022/08/12 04:00:53;;;;;;;12.20;4.40;;;22.50;84.00;;;;;;5068857;28;20035;-63
2022/08/12 04:06:04;;;;;;;9.88;4.20;;;22.40;84.00;;;;;;5070334;28;20025;-64
2022/08/12 04:08:30;;;;;;;6.65;4.15;;;22.40;83.90;;;;;;5070778;28;20037;-63
2022/08/12 04:13:41;;;;;;;11.02;4.20;;;22.40;83.70;;;;;;5071201;28;20490;-63
2022/08/12 04:16:12;;;;;;;11.13;4.70;;;22.30;83.10;;;;;;5070902;28;20098;-63
2022/08/12 04:18:39;;;;;;;8.70;4.65;;;22.30;82.80;;;;;;5069300;28;20032;-63
2022/08/12 04:21:11;;;;;;;7.85;3.70;;;22.20;82.60;;;;;;5074494;28;20032;-63
2022/08/12 04:23:43;;;;;;;7.03;4.22;;;22.30;82.70;;;;;;5074005;28;20039;-63
2022/08/12 04:26:09;;;;;;;7.20;3.85;;;22.20;82.70;;;;;;5072534;28;20657;-62
2022/08/12 04:28:35;;;;;;;8.65;4.18;;;22.20;82.90;;;;;;5070298;28;20021;-63
2022/08/12 04:31:01;;;;;;;12.35;4.28;;;22.20;82.90;;;;;;5072018;28;20039;-63
2022/08/12 04:33:27;;;;;;;6.00;4.13;;;22.10;83.00;;;;;;5072448;28;20024;-63
2022/08/12 04:35:56;;;;;;;5.65;4.03;;;22.10;83.10;;;;;;5074565;28;20032;-63
2022/08/12 04:38:23;;;;;;;9.00;4.13;;;22.00;83.20;;;;;;5068345;28;20041;-63
2022/08/12 04:40:50;;;;;;;6.93;4.40;;;22.00;83.30;;;;;;5072516;28;20281;-63
2022/08/12 04:43:17;;;;;;;8.60;4.38;;;22.00;83.40;;;;;;5071532;28;20024;-63
2022/08/12 04:45:43;;;;;;;9.57;4.05;;;22.00;83.60;;;;;;5073869;28;20380;-63
2022/08/12 04:48:08;;;;;;;12.10;4.78;;;21.90;83.80;;;;;;5072687;28;20028;-63
2022/08/12 04:50:34;;;;;;;8.40;3.97;;;21.90;84.00;;;;;;5074597;28;20492;-63
2022/08/12 04:53:01;;;;;;;7.78;4.07;;;21.90;84.20;;;;;;5069602;28;20365;-63
2022/08/12 04:55:27;;;;;;;8.93;4.00;;;21.90;84.40;;;;;;5074247;28;20047;-63
2022/08/12 04:57:54;;;;;;;6.75;4.32;;;21.90;84.50;;;;;;5064141;28;20045;-63
2022/08/12 05:00:20;;;;;;;11.45;4.50;;;21.90;84.70;;;;;;5074550;28;20035;-63
2022/08/12 05:02:46;;;;;;;10.50;4.25;;;21.90;84.80;;;;;;5072312;28;20425;-63
2022/08/12 05:05:18;;;;;;;8.05;4.50;;;21.90;85.60;;;;;;5071780;28;20111;-63
2022/08/12 05:07:44;;;;;;;8.95;4.93;;;21.80;85.10;;;;;;5072292;28;20044;-63
2022/08/12 05:10:10;;;;;;;13.38;4.85;;;21.80;85.20;;;;;;5071645;28;20036;-63
2022/08/12 05:12:41;;;;;;;9.32;4.38;;;21.90;85.40;;;;;;5073853;28;20388;-63
2022/08/12 05:15:07;;;;;;;8.13;4.50;;;21.90;85.60;;;;;;5074051;28;20111;-63
2022/08/12 05:17:33;;;;;;;12.68;4.20;;;21.80;85.80;;;;;;5073796;28;20039;-63
2022/08/12 05:19:59;;;;;;;7.28;4.25;;;21.90;86.00;;;;;;5074773;28;20028;-64
2022/08/12 05:22:26;;;;;;;5.90;3.05;;;21.80;86.10;;;;;;5072860;28;20059;-63
2022/08/12 05:24:52;;;;;;;10.27;3.30;;;21.80;86.20;;;;;;5072575;28;20032;-63
2022/08/12 05:27:18;;;;;;;9.63;4.00;;;21.80;86.40;;;;;;5074516;28;20029;-63
2022/08/12 05:29:48;;;;;;;8.48;3.58;;;21.80;86.70;;;;;;5073836;28;20032;-63
2022/08/12 05:32:19;;;;;;;9.15;3.30;;;21.80;87.00;;;;;;5074526;28;20020;-63
2022/08/12 05:34:48;;;;;;;6.07;3.38;;;21.80;87.00;;;;;;5071319;28;20035;-62
2022/08/12 05:37:15;;;;;;;7.75;3.22;;;21.80;87.10;;;;;;5071295;28;20036;-63
2022/08/12 05:39:40;;;;;;;10.57;3.42;;;21.90;87.10;;;;;;5074600;28;20043;-63
2022/08/12 05:42:07;;;;;;;6.05;2.88;;;21.90;87.00;;;;;;5071495;28;20020;-63
2022/08/12 05:44:33;;;;;;;6.72;3.30;;;21.80;86.70;;;;;;5071229;28;20033;-63
2022/08/12 05:46:59;;;;;;;8.68;3.03;;;21.90;86.80;;;;;;5071841;28;20114;-63
2022/08/12 05:49:25;;;;;;;8.73;2.72;;;21.90;86.70;;;;;;5070826;28;20111;-63
2022/08/12 05:51:51;;;;;;;6.10;3.10;;;21.90;86.40;;;;;;5062792;28;20491;-62
2022/08/12 05:54:17;;;;;;;5.13;2.88;;;21.90;86.20;;;;;;5072386;28;20035;-62
2022/08/12 05:56:44;;;;;;;9.23;2.72;;;21.90;86.20;;;;;;5071719;28;20113;-63
2022/08/12 05:59:10;;;;;;;6.60;2.97;;;21.90;86.30;;;;;;5070899;28;20045;-63
2022/08/12 06:01:38;;;;;;;14.82;3.92;;;22.00;86.10;;;;;;5074094;28;20032;-63
2022/08/12 06:04:03;;;;;;;6.07;3.20;;;22.00;86.30;;;;;;5072025;28;20024;-62
2022/08/12 06:06:34;;;;;;;5.47;3.13;;;22.00;86.30;;;;;;5072737;28;20511;-63
2022/08/12 06:09:00;;;;;;;7.70;3.22;;;22.00;86.30;;;;;;5069051;28;20039;-63
2022/08/12 06:11:26;;;;;;;8.63;2.80;;;22.00;86.00;;;;;;5063165;28;20032;-63
2022/08/12 06:13:54;;;;;;;9.82;3.75;;;22.10;86.00;;;;;;5069469;28;20048;-63
2022/08/12 06:16:22;;;;;;;5.78;3.25;;;22.10;86.40;;;;;;5073593;28;20037;-63
2022/08/12 06:18:48;;;;;;;7.38;3.35;;;22.10;85.70;;;;;;5072939;28;20032;-63
2022/08/12 06:21:16;;;;;;;7.97;3.00;;;22.10;85.40;;;;;;5073821;28;20032;-63
2022/08/12 06:23:44;;;;;;;5.13;2.75;;;22.10;85.30;;;;;;5059172;28;20059;-63
2022/08/12 06:26:11;;;;;;;5.60;3.00;;;22.10;85.20;;;;;;5070480;28;20028;-63
2022/08/12 06:28:38;;;;;;;5.60;3.20;;;22.20;85.30;;;;;;5071861;28;20024;-63
2022/08/12 06:31:05;;;;;;;5.93;2.97;;;22.20;85.40;;;;;;5068667;28;20020;-63
2022/08/12 06:33:31;;;;;;;5.05;2.75;;;22.20;85.00;;;;;;5071357;28;20035;-63
2022/08/12 06:35:58;;;;;;;9.73;3.00;;;22.20;85.10;;;;;;5072130;28;20013;-63
2022/08/12 06:38:25;;;;;;;5.15;2.70;;;22.30;85.10;;;;;;5071031;28;20067;-63
2022/08/12 06:43:43;;;;;;;6.50;2.72;;;22.40;84.60;;;;;;5071293;28;20033;-63
2022/08/12 06:46:10;;;;;;;4.57;2.85;;;22.50;84.20;;;;;;5066857;28;20031;-63
2022/08/12 06:48:37;;;;;;;9.63;3.35;;;22.50;83.60;;;;;;5070627;28;20487;-63
2022/08/12 06:51:03;;;;;;;10.27;3.60;;;22.60;83.80;;;;;;5069368;28;20032;-63
2022/08/12 06:53:32;;;;;;;5.80;3.00;;;22.70;83.90;;;;;;5069595;28;20036;-63
2022/08/12 06:55:59;;;;;;;4.63;2.95;;;22.70;83.80;;;;;;5069424;28;20131;-64
2022/08/12 06:58:27;;;;;;;6.03;3.35;;;22.80;83.60;;;;;;5070216;28;20032;-63
2022/08/12 07:00:54;;;;;;;8.45;3.08;;;22.90;83.60;;;;;;5067612;28;20044;-63
2022/08/12 07:03:24;;;;;;;6.35;2.97;;;23.00;83.20;;;;;;5069989;28;20076;-63
2022/08/12 07:05:50;;;;;;;8.43;3.08;;;23.00;83.00;;;;;;5067675;28;20037;-63
2022/08/12 07:08:17;;;;;;;6.25;3.25;;;23.10;82.80;;;;;;5067521;28;20032;-65
2022/08/12 07:10:56;;;;;;;5.32;3.25;;;23.10;83.00;;;;;;5069208;28;20020;-63
2022/08/12 07:13:23;;;;;;;7.15;3.10;;;23.10;83.00;;;;;;5063694;28;20035;-62
2022/08/12 07:15:54;;;;;;;3.85;2.78;;;23.20;83.00;;;;;;5053275;28;20276;-63
2022/08/12 07:18:22;;;;;;;5.13;3.00;;;23.30;82.90;;;;;;5053731;28;20037;-62
2022/08/12 07:20:48;;;;;;;4.75;3.10;;;23.40;82.60;;;;;;5053147;28;20024;-62
2022/08/12 07:23:16;;;;;;;6.75;2.85;;;23.40;82.70;;;;;;5053257;28;20021;-63
2022/08/12 07:25:47;;;;;;;8.60;2.67;;;23.40;82.90;;;;;;5051682;28;20029;-62
2022/08/12 07:28:22;;;;;;;7.00;3.05;;;23.50;82.60;;;;;;5047157;28;20484;-63
2022/08/12 07:30:49;;;;;;;4.93;2.92;;;23.60;83.30;;;;;;5045685;28;20040;-63
2022/08/12 07:33:16;;;;;;;5.43;2.70;;;23.60;82.50;;;;;;5050853;28;20037;-62
2022/08/12 07:35:46;;;;;;;10.77;2.85;;;23.70;82.40;;;;;;5055973;28;20036;-62
2022/08/12 07:38:35;;;;;;;7.05;3.00;;;23.80;82.20;;;;;;5059232;28;20041;-63
2022/08/12 07:41:15;;;;;;;12.68;3.63;;;23.80;82.20;;;;;;5058713;28;20025;-63
2022/08/12 07:43:44;;;;;;;8.10;3.25;;;23.80;82.20;;;;;;5056574;28;20472;-63
2022/08/12 07:46:13;;;;;;;9.63;3.25;;;23.90;82.10;;;;;;5050982;28;20032;-63
2022/08/12 07:48:44;;;;;;;9.25;3.08;;;23.90;82.10;;;;;;5053082;28;20025;-63
2022/08/12 07:51:11;;;;;;;9.05;3.28;;;24.00;82.00;;;;;;5057921;28;20067;-62
2022/08/12 07:53:37;;;;;;;5.97;3.35;;;24.00;82.10;;;;;;5054357;28;20021;-62
2022/08/12 07:56:08;;;;;;;11.02;3.50;;;24.10;82.10;;;;;;5052721;28;20029;-63
2022/08/12 07:58:38;;;;;;;7.53;3.42;;;24.20;82.00;;;;;;5051125;28;20444;-62
2022/08/12 08:01:04;;;;;;;5.93;3.20;;;24.20;81.80;;;;;;5049794;28;20043;-62
2022/08/12 08:03:30;;;;;;;8.48;2.60;;;24.20;81.60;;;;;;5049980;28;20033;-62
2022/08/12 08:05:57;;;;;;;5.30;2.70;;;24.30;81.60;;;;;;5049867;28;20041;-62
2022/08/12 08:08:25;;;;;;;4.95;3.00;;;24.30;81.40;;;;;;5048856;28;20060;-62
2022/08/12 08:12:52;;;;;;;6.55;2.50;;;24.30;81.20;;;;;;5052075;28;20461;-63
2022/08/12 08:13:41;;;;;;;5.97;2.90;;;24.40;81.00;;;;;;5050445;28;20044;-63
2022/08/12 08:16:07;;;;;;;4.13;2.60;;;24.40;81.00;;;;;;5051242;28;20013;-63
2022/08/12 08:18:33;;;;;;;3.55;2.28;;;24.40;81.00;;;;;;5052231;28;20507;-63
2022/08/12 08:21:02;;;;;;;6.68;2.88;;;24.50;80.70;;;;;;5052367;28;20064;-63
2022/08/12 08:24:13;;;;;;;6.25;3.15;;;24.50;80.10;;;;;;5049624;28;20021;-63
2022/08/12 08:26:14;;;;;;;4.53;3.30;;;24.60;79.60;;;;;;5050731;28;20048;-63
2022/08/12 08:28:41;;;;;;;3.58;2.80;;;24.60;79.50;;;;;;5049903;28;20119;-63
2022/08/12 08:31:07;;;;;;;8.48;2.88;;;24.70;79.10;;;;;;5048181;28;20500;-63
2022/08/12 08:33:33;;;;;;;10.02;2.72;;;24.70;78.70;;;;;;5051693;28;20036;-63
2022/08/12 08:35:59;;;;;;;5.40;2.53;;;24.70;78.70;;;;;;5055720;28;20099;-64
2022/08/12 08:38:25;;;;;;;4.13;2.40;;;24.80;78.20;;;;;;5068253;28;20043;-64
2022/08/12 08:43:35;;;;;;;3.83;2.33;;;24.90;78.20;;;;;;5068650;28;20070;-63
2022/08/12 08:46:04;;;;;;;6.70;3.42;;;25.00;78.30;;;;;;5069367;28;20480;-63
2022/08/12 08:48:31;;;;;;;4.65;2.67;;;25.00;77.90;;;;;;5064683;28;20085;-63
2022/08/12 08:51:01;;;;;;;6.57;2.47;;;25.10;78.00;;;;;;5067995;28;20085;-65
2022/08/12 08:53:27;;;;;;;7.32;2.60;;;25.10;78.30;;;;;;5071131;28;20082;-64
2022/08/12 08:55:53;;;;;;;3.55;2.55;;;25.20;78.10;;;;;;5070684;28;20032;-64
2022/08/12 08:58:21;;;;;;;8.57;3.00;;;25.20;78.00;;;;;;5065458;28;20078;-64
2022/08/12 09:00:50;;;;;;;4.10;2.55;;;25.20;77.80;;;;;;5070870;28;20033;-65
2022/08/12 09:03:17;;;;;;;6.28;2.53;;;25.30;77.30;;;;;;5067515;28;20029;-65
2022/08/12 09:05:43;;;;;;;8.95;2.60;;;25.40;77.40;;;;;;5066740;28;20069;-64
2022/08/12 09:08:09;;;;;;;11.32;2.53;;;25.40;76.90;;;;;;5075043;28;20040;-64
2022/08/12 09:10:37;;;;;;;13.15;3.42;;;25.50;77.10;;;;;;5069069;28;20033;-64
2022/08/12 09:15:47;;;;;;;12.55;3.03;;;25.50;76.70;;;;;;5053053;28;20695;-64
2022/08/12 09:18:14;;;;;;;8.43;2.45;;;25.60;76.80;;;;;;5052643;28;20033;-64
2022/08/12 09:20:41;;;;;;;6.93;2.55;;;25.60;76.80;;;;;;5052079;28;20032;-64
2022/08/12 09:23:10;;;;;;;9.88;2.80;;;25.60;76.30;;;;;;5054131;28;20045;-64
2022/08/12 09:25:40;;;;;;;4.05;3.10;;;25.70;76.00;;;;;;5053930;28;20476;-63
2022/08/12 09:28:08;;;;;;;6.38;3.63;;;25.70;76.20;;;;;;5055851;28;20114;-62
2022/08/12 09:30:35;;;;;;;7.80;2.72;;;25.80;76.00;;;;;;5055594;28;20481;-63
2022/08/12 09:33:01;;;;;;;4.72;2.45;;;25.90;76.00;;;;;;5055051;28;20036;-63
2022/08/12 09:35:39;;;;;;;5.93;2.78;;;25.90;76.20;;;;;;5053344;28;20041;-63
2022/08/12 09:38:05;;;;;;;6.22;3.22;;;26.00;76.00;;;;;;5058238;28;20036;-63
2022/08/12 09:40:31;;;;;;;11.80;2.90;;;26.00;76.60;;;;;;5055994;28;20040;-63
2022/08/12 09:45:45;;;;;;;10.93;3.22;;;26.20;76.00;;;;;;5053478;28;20166;-64
2022/08/12 09:48:21;;;;;;;6.72;2.38;;;26.20;75.90;;;;;;5052734;28;20021;-63
2022/08/12 09:50:49;;;;;;;7.13;2.30;;;26.30;75.80;;;;;;5053960;28;20061;-63
2022/08/12 09:53:19;;;;;;;4.82;2.67;;;26.30;75.60;;;;;;5054249;28;20476;-63
2022/08/12 09:55:51;;;;;;;6.78;3.20;;;26.40;75.90;;;;;;5053869;28;20021;-63
2022/08/12 09:58:28;;;;;;;6.72;2.60;;;26.50;75.80;;;;;;5055767;28;20447;-63
2022/08/12 10:01:00;;;;;;;4.60;2.30;;;26.50;75.30;;;;;;5054118;28;20057;-63
2022/08/12 10:03:28;;;;;;;6.90;2.40;;;26.60;75.10;;;;;;5053646;28;20021;-63
2022/08/12 10:05:54;;;;;;;5.22;2.55;;;26.60;75.60;;;;;;5054649;28;20032;-64
2022/08/12 10:08:26;;;;;;;4.90;2.42;;;26.70;75.40;;;;;;5055641;28;20374;-64
2022/08/12 10:13:42;;;;;;;9.45;2.63;;;26.70;74.70;;;;;;5052826;28;20037;-63
2022/08/12 10:16:18;;;;;;;8.13;2.40;;;26.90;74.30;;;;;;5053408;28;20694;-63
2022/08/12 10:18:55;;;;;;;6.82;2.33;;;26.90;74.50;;;;;;5054472;28;20158;-63
2022/08/12 10:21:47;;;;;;;5.47;2.08;;;27.00;74.40;;;;;;5054475;28;20028;-63
2022/08/12 10:24:18;;;;;;;6.95;2.13;;;27.00;74.10;;;;;;5051475;28;20080;-63
2022/08/12 10:29:38;;;;;;;5.32;2.08;;;27.00;74.50;;;;;;5052654;28;20808;-63
2022/08/12 10:32:22;;;;;;;9.27;2.05;;;27.10;73.60;;;;;;5053748;28;20033;-63
2022/08/12 10:34:49;;;;;;;2.08;1.70;;;27.10;72.90;;;;;;5053200;28;20035;-62
2022/08/12 10:37:15;;;;;;;5.50;2.13;;;27.10;73.40;;;;;;5055123;28;20547;-63
2022/08/12 10:39:41;;;;;;;18.92;2.42;;;27.20;72.60;;;;;;5052466;28;20028;-63
2022/08/12 10:45:02;;;;;;;8.32;2.08;;;27.30;72.30;;;;;;5071286;28;20384;-63
2022/08/12 10:47:33;;;;;;;7.03;2.47;;;27.30;72.90;;;;;;5069354;28;20032;-63
2022/08/12 10:49:59;;;;;;;1.95;1.65;;;27.40;72.00;;;;;;5072687;28;20043;-63
2022/08/12 10:52:29;;;;;;;15.60;2.75;;;27.40;71.80;;;;;;5065362;28;20025;-63
2022/08/12 10:54:55;;;;;;;8.32;2.13;;;27.40;71.20;;;;;;5072802;28;20037;-63
2022/08/12 10:57:25;;;;;;;7.07;2.10;;;27.50;70.90;;;;;;5065885;28;20090;-62
2022/08/12 10:59:56;;;;;;;6.35;1.98;;;27.50;70.20;;;;;;5059323;28;20044;-62
2022/08/12 11:02:24;;;;;;;5.15;1.95;;;27.60;69.50;;;;;;5072741;28;20028;-63
2022/08/12 11:04:50;;;;;;;5.47;1.90;;;27.70;69.80;;;;;;5072721;28;20434;-63
2022/08/12 11:07:16;;;;;;;2.97;1.55;;;27.80;69.30;;;;;;5072046;28;20029;-62
2022/08/12 11:09:42;;;;;;;3.92;1.98;;;27.80;68.10;;;;;;5068855;28;20098;-63
2022/08/12 11:12:08;;;;;;;6.82;1.90;;;27.90;68.10;;;;;;5070189;28;20139;-63
2022/08/12 11:14:37;;;;;;;2.20;1.40;;;27.90;67.80;;;;;;5053759;28;20108;-63
2022/08/12 11:17:12;;;;;;;5.13;1.83;;;28.00;67.80;;;;;;5063898;28;20037;-62
2022/08/12 11:19:40;;;;;;;10.10;1.90;;;28.00;68.00;;;;;;5069326;28;20058;-63
2022/08/12 11:22:07;;;;;;;11.23;2.03;;;28.00;67.00;;;;;;5069019;28;20025;-63
2022/08/12 11:24:33;;;;;;;5.43;1.85;;;28.10;67.60;;;;;;5071560;28;20039;-63
2022/08/12 11:27:01;;;;;;;11.18;1.70;;;28.10;68.00;;;;;;5067478;28;20025;-63
2022/08/12 11:29:28;;;;;;;4.13;1.58;;;28.10;67.00;;;;;;5072426;28;20035;-63
2022/08/12 11:31:54;;;;;;;13.38;1.88;;;28.20;65.70;;;;;;5068101;28;20348;-63
2022/08/12 11:34:20;;;;;;;11.02;2.10;;;28.20;67.00;;;;;;5071870;28;20116;-63
2022/08/12 11:36:59;;;;;;;3.80;1.88;;;28.20;65.70;;;;;;5067448;28;20438;-63
2022/08/12 11:39:26;;;;;;;5.93;2.05;;;28.30;65.30;;;;;;5069302;28;20024;-63
2022/08/12 11:41:52;;;;;;;8.60;1.83;;;28.30;65.30;;;;;;5065915;28;20106;-64
2022/08/12 11:44:17;;;;;;;5.10;1.70;;;28.40;65.60;;;;;;5068553;28;20029;-63
2022/08/12 11:46:43;;;;;;;3.85;1.80;;;28.40;65.70;;;;;;5070171;28;20028;-63
2022/08/12 11:49:10;;;;;;;5.30;2.03;;;28.50;68.00;;;;;;5071668;28;20044;-63
2022/08/12 11:51:37;;;;;;;7.05;1.90;;;28.50;67.70;;;;;;5069394;28;20044;-63
2022/08/12 11:54:04;;;;;;;9.45;2.13;;;28.50;68.30;;;;;;5069979;28;20580;-64
2022/08/12 11:56:30;;;;;;;3.33;1.88;;;28.50;69.30;;;;;;5070354;28;20052;-62
2022/08/12 11:58:56;;;;;;;5.93;1.75;;;28.60;69.40;;;;;;5071824;28;20442;-63
2022/08/12 12:01:22;;;;;;;6.22;1.85;;;28.60;68.10;;;;;;5067691;28;20060;-62
2022/08/12 12:03:48;;;;;;;5.97;2.63;;;28.60;66.50;;;;;;5071759;28;20036;-63
2022/08/12 12:06:15;;;;;;;6.00;1.70;;;28.60;66.30;;;;;;5070191;28;20016;-63
2022/08/12 12:08:41;;;;;;;16.85;2.10;;;28.60;65.80;;;;;;5065431;28;20107;-63
2022/08/12 12:11:06;;;;;;;6.85;2.08;;;28.70;65.60;;;;;;5071256;28;20033;-63
2022/08/12 12:13:32;;;;;;;3.85;1.63;;;28.70;65.90;;;;;;5071433;28;20025;-63
2022/08/12 12:15:58;;;;;;;6.20;1.80;;;28.70;66.90;;;;;;5071499;28;20064;-63
2022/08/12 12:18:26;;;;;;;4.50;1.90;;;28.80;67.00;;;;;;5070896;28;20041;-64
2022/08/12 12:20:54;;;;;;;5.22;1.83;;;28.90;66.40;;;;;;5071477;28;20077;-62
2022/08/12 12:23:20;;;;;;;10.25;2.10;;;28.90;68.20;;;;;;5070242;28;20046;-72
2022/08/12 12:25:45;;;;;;;4.10;1.55;;;28.90;67.70;;;;;;5070819;28;20179;-63
2022/08/12 12:28:12;;;;;;;8.27;2.10;;;29.00;69.20;;;;;;5070754;28;20051;-63
2022/08/12 12:30:38;;;;;;;10.60;1.67;;;28.90;68.40;;;;;;5070214;28;20487;-63
2022/08/12 12:33:06;;;;;;;5.15;1.83;;;29.00;68.90;;;;;;5069767;28;20032;-63
2022/08/12 12:35:36;;;;;;;5.22;1.95;;;28.90;68.20;;;;;;5070836;28;20028;-63
2022/08/12 12:38:04;;;;;;;7.30;1.98;;;29.00;67.90;;;;;;5056120;28;20052;-66
2022/08/12 12:40:31;;;;;;;9.25;1.90;;;29.00;67.20;;;;;;5062549;28;20377;-63
2022/08/12 12:42:58;;;;;;;8.02;1.85;;;29.00;66.90;;;;;;5065278;28;20468;-64
2022/08/12 12:45:24;;;;;;;9.70;2.03;;;29.10;67.90;;;;;;5066282;28;20110;-63
2022/08/12 12:48:00;;;;;;;8.77;2.25;;;29.10;68.20;;;;;;5071258;28;20086;-63
2022/08/12 12:50:37;;;;;;;12.18;1.75;;;29.20;67.60;;;;;;5070431;28;20071;-63
2022/08/12 12:53:04;;;;;;;5.78;1.80;;;29.20;68.10;;;;;;5072763;28;20040;-63
2022/08/12 12:55:34;;;;;;;4.63;1.55;;;29.20;68.20;;;;;;5072703;28;20033;-63
2022/08/12 12:58:03;;;;;;;7.85;2.13;;;29.20;68.10;;;;;;5069202;28;20048;-63
2022/08/12 13:00:31;;;;;;;11.13;1.70;;;29.20;69.10;;;;;;5074190;28;20063;-63
2022/08/12 13:02:57;;;;;;;5.15;2.00;;;29.30;69.90;;;;;;5069335;28;20036;-63
2022/08/12 13:05:37;;;;;;;3.58;1.70;;;29.30;69.00;;;;;;5067215;28;20384;-63
2022/08/12 13:08:24;;;;;;;8.60;1.50;;;29.30;68.40;;;;;;5060703;28;20036;-63
2022/08/12 13:10:51;;;;;;;3.67;1.90;;;29.30;69.10;;;;;;5063761;28;20044;-63
2022/08/12 13:13:18;;;;;;;17.98;2.08;;;29.30;68.60;;;;;;5067426;28;20071;-63
2022/08/12 13:15:46;;;;;;;12.23;1.85;;;29.30;68.80;;;;;;5074163;28;20143;-63
2022/08/12 13:18:14;;;;;;;2.50;1.60;;;29.30;70.00;;;;;;5073195;28;20048;-63
2022/08/12 13:20:42;;;;;;;14.88;2.08;;;29.30;70.40;;;;;;5073879;28;20029;-63
2022/08/12 13:23:09;;;;;;;9.02;1.90;;;29.40;69.60;;;;;;5072874;28;20039;-63
2022/08/12 13:25:35;;;;;;;11.77;2.28;;;29.40;70.30;;;;;;5071395;28;20027;-63
2022/08/12 13:28:02;;;;;;;6.47;2.10;;;29.40;70.40;;;;;;5074078;28;20122;-64
2022/08/12 13:30:29;;;;;;;8.10;2.05;;;29.40;69.90;;;;;;5071801;28;20033;-65
2022/08/12 13:32:58;;;;;;;10.07;1.70;;;29.40;69.40;;;;;;5071105;28;20033;-65
2022/08/12 13:35:25;;;;;;;6.60;1.90;;;29.40;70.70;;;;;;5068479;28;20114;-64
2022/08/12 13:37:55;;;;;;;8.13;2.00;;;29.40;70.00;;;;;;5074273;28;20044;-64
2022/08/12 13:40:25;;;;;;;4.05;1.45;;;29.40;69.50;;;;;;5054889;28;20090;-64
2022/08/12 13:42:56;;;;;;;6.32;1.90;;;29.50;70.30;;;;;;5068537;28;20032;-64
2022/08/12 13:45:22;;;;;;;3.67;1.15;;;29.50;69.50;;;;;;5070603;28;20043;-64
2022/08/12 13:47:58;;;;;;;7.88;1.80;;;29.50;70.60;;;;;;5072092;28;20033;-64
2022/08/12 13:50:28;;;;;;;8.05;2.20;;;29.50;69.90;;;;;;5072986;28;20064;-64
2022/08/12 13:52:54;;;;;;;9.40;1.85;;;29.50;69.90;;;;;;5072515;28;20058;-64
2022/08/12 13:55:21;;;;;;;6.53;1.38;;;29.50;69.80;;;;;;5071335;28;20146;-64
2022/08/12 13:57:47;;;;;;;5.63;1.88;;;29.60;69.90;;;;;;5070235;28;20056;-64
2022/08/12 14:00:14;;;;;;;14.95;2.00;;;29.50;69.70;;;;;;5073686;28;20031;-64
2022/08/12 14:02:40;;;;;;;10.75;1.88;;;29.50;70.00;;;;;;5064839;28;20127;-63
2022/08/12 14:05:08;;;;;;;4.78;1.80;;;29.50;69.90;;;;;;5074038;28;20422;-65
2022/08/12 14:07:53;;;;;;;2.40;1.50;;;29.60;69.40;;;;;;5069677;28;20511;-65
2022/08/12 14:10:35;;;;;;;4.93;1.90;;;29.70;70.80;;;;;;5072807;28;20127;-65
2022/08/12 14:13:06;;;;;;;1.77;1.42;;;29.60;69.70;;;;;;5071078;28;20032;-64
2022/08/12 14:15:33;;;;;;;6.73;1.73;;;29.60;70.20;;;;;;5071772;28;20082;-64
2022/08/12 14:18:19;;;;;;;4.82;1.90;;;29.70;70.50;;;;;;5069563;28;20127;-65
2022/08/12 14:20:57;;;;;;;9.52;1.45;;;29.70;70.20;;;;;;5071751;28;20029;-65
2022/08/12 14:23:24;;;;;;;6.10;1.80;;;29.70;70.10;;;;;;5072546;28;20043;-65
2022/08/12 14:25:50;;;;;;;7.63;1.70;;;29.70;70.40;;;;;;5064247;28;20032;-65
2022/08/12 14:28:18;;;;;;;9.65;1.92;;;29.70;70.30;;;;;;5062267;28;20082;-65
2022/08/12 14:30:59;;;;;;;4.35;1.83;;;29.80;70.00;;;;;;5071607;28;20081;-71
2022/08/12 14:33:28;;;;;;;3.97;1.98;;;29.70;69.80;;;;;;5061737;28;20059;-65
2022/08/12 14:35:54;;;;;;;10.02;1.60;;;29.70;70.30;;;;;;5073514;28;20040;-65
2022/08/12 14:38:22;;;;;;;5.15;1.83;;;29.80;69.50;;;;;;5056399;28;20091;-65
2022/08/12 14:40:51;;;;;;;8.40;1.98;;;29.80;69.60;;;;;;5055486;28;20029;-65